Time;durP1;ratioP1;P1;durP2;ratioP2;P2;SDS_P1;SDS_P2;PMS_P1;PMS_P2;Temp;Humidity;BMP_temperature;BMP_pressure;BME280_temperature;BME280_humidity;BME280_pressure;Samples;Min_cycle;Max_cycle;Signal;HPM_P1;HPM_P2
2022/05/28 00:02:00;;;;;;;12.30;3.88;;;;;;;;;;5023168;28;20055;-69
2022/05/28 00:04:25;;;;;;;12.43;3.90;;;;;;;;;;5026066;28;20059;-68
2022/05/28 00:06:51;;;;;;;7.03;3.45;;;;;;;;;;5026659;28;20534;-68
2022/05/28 00:09:17;;;;;;;10.52;3.72;;;;;;;;;;5023397;28;20041;-73
2022/05/28 00:11:44;;;;;;;9.85;3.97;;;;;;;;;;5024801;28;20057;-70
2022/05/28 00:14:11;;;;;;;9.32;3.65;;;;;;;;;;5027546;28;20037;-68
2022/05/28 00:16:37;;;;;;;7.57;3.40;;;;;;;;;;5025653;28;20431;-69
2022/05/28 00:19:06;;;;;;;9.00;3.97;;;;;;;;;;5026694;28;20037;-69
2022/05/28 00:21:33;;;;;;;13.98;3.70;;;;;;;;;;5026922;28;20053;-70
2022/05/28 00:23:59;;;;;;;9.07;3.55;;;;;;;;;;5027351;28;20041;-67
2022/05/28 00:26:25;;;;;;;9.52;3.47;;;;;;;;;;5019830;28;20073;-69
2022/05/28 00:28:52;;;;;;;12.20;3.42;;;;;;;;;;5031179;28;20053;-68
2022/05/28 00:31:18;;;;;;;12.85;3.40;;;;;;;;;;5026602;28;20487;-68
2022/05/28 00:33:44;;;;;;;9.00;3.60;;;;;;;;;;5023606;28;20380;-69
2022/05/28 00:36:15;;;;;;;9.88;3.35;;;;;;;;;;5025806;28;20107;-67
2022/05/28 00:38:42;;;;;;;7.63;3.30;;;;;;;;;;5025717;28;20041;-73
2022/05/28 00:41:09;;;;;;;8.68;3.00;;;;;;;;;;5029573;28;20483;-67
2022/05/28 00:43:37;;;;;;;8.15;3.17;;;;;;;;;;5025375;28;20049;-67
2022/05/28 00:46:08;;;;;;;7.47;2.83;;;;;;;;;;5020448;28;20476;-67
2022/05/28 00:48:40;;;;;;;5.88;2.33;;;;;;;;;;5030203;28;20487;-71
2022/05/28 00:51:09;;;;;;;11.20;2.92;;;;;;;;;;5025173;28;20053;-67
2022/05/28 00:53:35;;;;;;;7.90;2.80;;;;;;;;;;5023065;28;20060;-68
2022/05/28 00:56:04;;;;;;;8.40;2.50;;;;;;;;;;5027281;28;20042;-67
2022/05/28 00:58:30;;;;;;;4.40;2.60;;;;;;;;;;5026012;28;20413;-68
2022/05/28 01:00:57;;;;;;;6.05;2.80;;;;;;;;;;5019475;28;20442;-67
2022/05/28 01:03:56;;;;;;;5.15;2.75;;;;;;;;;;5022289;28;20041;-68
2022/05/28 01:06:33;;;;;;;4.53;2.88;;;;;;;;;;5013673;28;20359;-68
2022/05/28 01:09:04;;;;;;;11.57;2.75;;;;;;;;;;5027042;28;20049;-66
2022/05/28 01:11:44;;;;;;;5.30;2.30;;;;;;;;;;5027458;28;20061;-67
2022/05/28 01:14:25;;;;;;;6.57;2.50;;;;;;;;;;5026659;28;20487;-68
2022/05/28 01:16:54;;;;;;;5.18;2.55;;;;;;;;;;5022999;28;20060;-67
2022/05/28 01:19:42;;;;;;;7.07;2.35;;;;;;;;;;5024177;28;20072;-68
2022/05/28 01:22:22;;;;;;;5.32;2.70;;;;;;;;;;5021739;28;20155;-68
2022/05/28 01:24:53;;;;;;;6.03;2.33;;;;;;;;;;5028434;28;20041;-67
2022/05/28 01:27:32;;;;;;;5.15;2.40;;;;;;;;;;5027722;28;20370;-68
2022/05/28 01:30:04;;;;;;;6.45;2.75;;;;;;;;;;5026334;28;20095;-68
2022/05/28 01:32:32;;;;;;;7.25;2.67;;;;;;;;;;5024786;28;20057;-68
2022/05/28 01:34:59;;;;;;;8.00;2.45;;;;;;;;;;5023724;28;20061;-67
2022/05/28 01:37:26;;;;;;;7.50;2.78;;;;;;;;;;5023701;28;20258;-67
2022/05/28 01:39:54;;;;;;;6.03;2.60;;;;;;;;;;5026601;28;20443;-68
2022/05/28 01:42:20;;;;;;;5.80;2.53;;;;;;;;;;5018853;28;20045;-68
2022/05/28 01:44:49;;;;;;;3.50;1.95;;;;;;;;;;5039868;28;20494;-68
2022/05/28 01:47:17;;;;;;;7.85;2.45;;;;;;;;;;5023010;28;20057;-67
2022/05/28 01:49:44;;;;;;;5.35;2.40;;;;;;;;;;5011485;28;20107;-68
2022/05/28 01:52:13;;;;;;;4.43;2.40;;;;;;;;;;5014869;28;20395;-67
2022/05/28 01:54:43;;;;;;;5.78;2.08;;;;;;;;;;5027233;28;20060;-66
2022/05/28 01:57:11;;;;;;;5.95;2.47;;;;;;;;;;5026135;28;20061;-67
2022/05/28 01:59:37;;;;;;;5.32;2.10;;;;;;;;;;5039581;28;20061;-66
2022/05/28 02:02:06;;;;;;;6.25;2.38;;;;;;;;;;5031290;28;20041;-68
2022/05/28 02:04:35;;;;;;;6.95;2.47;;;;;;;;;;5021550;28;20510;-66
2022/05/28 02:07:03;;;;;;;3.65;2.17;;;;;;;;;;5042017;28;20136;-70
2022/05/28 02:09:34;;;;;;;5.40;2.30;;;;;;;;;;5022845;28;20049;-67
2022/05/28 02:11:59;;;;;;;7.00;2.40;;;;;;;;;;5035152;28;20288;-68
2022/05/28 02:14:50;;;;;;;6.28;2.33;;;;;;;;;;5043655;28;20052;-67
2022/05/28 02:17:39;;;;;;;10.05;2.60;;;;;;;;;;5035271;28;20045;-68
2022/05/28 02:20:24;;;;;;;4.70;2.20;;;;;;;;;;5028631;28;20056;-69
2022/05/28 02:23:12;;;;;;;6.43;2.05;;;;;;;;;;5037175;28;20158;-69
2022/05/28 02:26:09;;;;;;;7.00;2.20;;;;;;;;;;5040929;28;20399;-67
2022/05/28 02:28:36;;;;;;;5.88;2.10;;;;;;;;;;5033718;28;20045;-64
2022/05/28 02:31:32;;;;;;;5.72;2.00;;;;;;;;;;5028798;28;20460;-70
2022/05/28 02:33:59;;;;;;;9.98;2.08;;;;;;;;;;5019685;28;20068;-67
2022/05/28 02:36:27;;;;;;;4.47;1.98;;;;;;;;;;5041581;28;20045;-68
2022/05/28 02:38:53;;;;;;;4.20;2.45;;;;;;;;;;5035051;28;20125;-71
2022/05/28 02:41:19;;;;;;;5.72;2.08;;;;;;;;;;5029346;28;20046;-69
2022/05/28 02:46:56;;;;;;;3.42;2.25;;;;;;;;;;5488367;23;20130;-70
2022/05/28 02:49:23;;;;;;;5.20;2.13;;;;;;;;;;4970117;28;20053;-70
2022/05/28 02:51:49;;;;;;;5.30;2.33;;;;;;;;;;4988272;28;20050;-71
2022/05/28 02:54:15;;;;;;;4.07;2.42;;;;;;;;;;4990528;28;20101;-71
2022/05/28 02:56:41;;;;;;;5.03;2.30;;;;;;;;;;4982646;28;20247;-70
2022/05/28 02:59:07;;;;;;;5.88;2.28;;;;;;;;;;4977685;28;20047;-69
2022/05/28 03:01:33;;;;;;;8.20;2.80;;;;;;;;;;4977860;28;20047;-70
2022/05/28 03:04:00;;;;;;;4.60;2.63;;;;;;;;;;4964221;28;20047;-69
2022/05/28 03:06:26;;;;;;;4.05;2.42;;;;;;;;;;4973193;28;20138;-72
2022/05/28 03:08:53;;;;;;;5.43;2.90;;;;;;;;;;4984789;28;20451;-68
2022/05/28 03:11:19;;;;;;;5.03;2.70;;;;;;;;;;4985109;28;20137;-69
2022/05/28 03:13:46;;;;;;;5.47;2.70;;;;;;;;;;4978883;28;20594;-71
2022/05/28 03:16:12;;;;;;;5.22;2.60;;;;;;;;;;4982710;28;20053;-73
2022/05/28 03:18:38;;;;;;;6.50;2.70;;;;;;;;;;4967382;28;20411;-70
2022/05/28 03:21:05;;;;;;;4.55;2.35;;;;;;;;;;4967136;28;20126;-70
2022/05/28 03:23:31;;;;;;;5.30;2.85;;;;;;;;;;4972136;28;20117;-68
2022/05/28 03:25:57;;;;;;;8.10;2.90;;;;;;;;;;4968259;28;20047;-69
2022/05/28 03:28:23;;;;;;;5.00;2.53;;;;;;;;;;4960805;28;20419;-69
2022/05/28 03:30:49;;;;;;;8.77;2.92;;;;;;;;;;4978130;28;20411;-72
2022/05/28 03:33:15;;;;;;;6.93;2.95;;;;;;;;;;4977625;28;20053;-71
2022/05/28 03:35:41;;;;;;;7.75;3.17;;;;;;;;;;4975850;28;20050;-69
2022/05/28 03:38:07;;;;;;;8.18;2.70;;;;;;;;;;4966838;28;20050;-69
2022/05/28 03:40:34;;;;;;;11.30;2.97;;;;;;;;;;4979535;28;20136;-70
2022/05/28 03:43:00;;;;;;;8.13;3.15;;;;;;;;;;4972977;28;20038;-70
2022/05/28 03:45:27;;;;;;;5.63;2.53;;;;;;;;;;4978002;28;20130;-70
2022/05/28 03:47:54;;;;;;;5.38;2.63;;;;;;;;;;4981675;28;20060;-68
2022/05/28 03:50:20;;;;;;;8.88;2.90;;;;;;;;;;4974206;28;20054;-69
2022/05/28 03:52:46;;;;;;;5.28;2.50;;;;;;;;;;4975330;28;20047;-70
2022/05/28 03:55:13;;;;;;;8.32;2.75;;;;;;;;;;4989504;28;20105;-69
2022/05/28 03:57:39;;;;;;;7.97;2.20;;;;;;;;;;4980197;28;20440;-70
2022/05/28 04:00:05;;;;;;;5.53;2.38;;;;;;;;;;4975938;28;20081;-69
2022/05/28 04:02:31;;;;;;;5.00;2.33;;;;;;;;;;4966820;28;20121;-70
2022/05/28 04:04:57;;;;;;;5.10;2.30;;;;;;;;;;4968255;28;20160;-70
2022/05/28 04:07:24;;;;;;;5.70;2.65;;;;;;;;;;4967773;28;20046;-71
2022/05/28 04:09:50;;;;;;;8.18;2.30;;;;;;;;;;4972345;28;20051;-69
2022/05/28 04:12:16;;;;;;;4.28;2.20;;;;;;;;;;4976661;28;20476;-69
2022/05/28 04:14:42;;;;;;;5.78;1.88;;;;;;;;;;4974725;28;20399;-70
2022/05/28 04:17:08;;;;;;;10.05;2.03;;;;;;;;;;4967119;28;20038;-71
2022/05/28 04:19:33;;;;;;;6.15;2.28;;;;;;;;;;4968895;28;20046;-69
2022/05/28 04:21:59;;;;;;;6.80;2.30;;;;;;;;;;4970472;28;20043;-69
2022/05/28 04:24:25;;;;;;;5.95;2.47;;;;;;;;;;4973858;28;20388;-68
2022/05/28 04:26:51;;;;;;;7.35;2.80;;;;;;;;;;4965387;28;20046;-71
2022/05/28 04:29:17;;;;;;;4.57;2.50;;;;;;;;;;4963827;28;20121;-71
2022/05/28 04:31:43;;;;;;;7.75;2.80;;;;;;;;;;4974516;28;20109;-69
2022/05/28 04:34:09;;;;;;;6.20;2.83;;;;;;;;;;4970911;28;20050;-71
2022/05/28 04:36:34;;;;;;;5.95;2.85;;;;;;;;;;4966451;28;20046;-68
2022/05/28 04:39:00;;;;;;;10.70;2.60;;;;;;;;;;4978365;28;20457;-71
2022/05/28 04:41:26;;;;;;;10.27;2.60;;;;;;;;;;4971651;28;20101;-70
2022/05/28 04:43:52;;;;;;;8.27;2.78;;;;;;;;;;4966444;28;20042;-69
2022/05/28 04:46:18;;;;;;;6.50;2.50;;;;;;;;;;4970849;28;20088;-69
2022/05/28 04:48:44;;;;;;;6.72;2.67;;;;;;;;;;4971400;28;20509;-69
2022/05/28 04:51:10;;;;;;;8.30;2.65;;;;;;;;;;4975719;28;20136;-70
2022/05/28 04:53:36;;;;;;;6.78;2.40;;;;;;;;;;4972256;28;20061;-70
2022/05/28 04:56:02;;;;;;;6.75;2.75;;;;;;;;;;4974293;28;20145;-69
2022/05/28 04:58:30;;;;;;;13.48;3.03;;;;;;;;;;4975136;28;20475;-71
2022/05/28 05:00:56;;;;;;;8.82;2.70;;;;;;;;;;4972929;28;20038;-70
2022/05/28 05:03:22;;;;;;;6.18;2.85;;;;;;;;;;4973180;28;20476;-69
2022/05/28 05:05:48;;;;;;;7.75;2.50;;;;;;;;;;4964511;28;20693;-70
2022/05/28 05:08:14;;;;;;;9.77;2.53;;;;;;;;;;4974662;28;20043;-69
2022/05/28 05:10:40;;;;;;;9.63;2.67;;;;;;;;;;4978723;28;20046;-69
2022/05/28 05:13:06;;;;;;;5.93;2.20;;;;;;;;;;4950694;28;20057;-70
2022/05/28 05:15:32;;;;;;;11.18;2.40;;;;;;;;;;4955824;28;20079;-69
2022/05/28 05:17:58;;;;;;;10.10;2.70;;;;;;;;;;4964589;28;20439;-70
2022/05/28 05:20:27;;;;;;;6.97;2.72;;;;;;;;;;4966288;28;20051;-71
2022/05/28 05:22:54;;;;;;;13.77;2.95;;;;;;;;;;4964431;28;20480;-69
2022/05/28 05:25:20;;;;;;;11.50;2.58;;;;;;;;;;4964540;28;20066;-70
2022/05/28 05:27:46;;;;;;;7.05;2.78;;;;;;;;;;4967924;28;20412;-70
2022/05/28 05:30:13;;;;;;;5.20;2.50;;;;;;;;;;4964592;28;20081;-71
2022/05/28 05:32:39;;;;;;;9.05;2.78;;;;;;;;;;4962507;28;20187;-69
2022/05/28 05:35:05;;;;;;;8.43;2.63;;;;;;;;;;4964844;28;20054;-71
2022/05/28 05:37:31;;;;;;;7.43;3.17;;;;;;;;;;4963723;28;20063;-72
2022/05/28 05:39:57;;;;;;;9.10;2.80;;;;;;;;;;4965883;28;20488;-68
2022/05/28 05:42:23;;;;;;;17.20;3.00;;;;;;;;;;4968370;28;20175;-71
2022/05/28 05:44:49;;;;;;;8.52;2.95;;;;;;;;;;4966831;28;20055;-73
2022/05/28 05:47:14;;;;;;;13.85;3.28;;;;;;;;;;4965514;28;20073;-70
2022/05/28 05:49:40;;;;;;;14.20;3.15;;;;;;;;;;4968113;28;20570;-72
2022/05/28 05:52:07;;;;;;;7.43;3.58;;;;;;;;;;4966262;28;20105;-70
2022/05/28 05:54:33;;;;;;;12.80;3.53;;;;;;;;;;4966579;28;20061;-73
2022/05/28 05:56:59;;;;;;;9.85;3.47;;;;;;;;;;4967989;28;20078;-71
2022/05/28 05:59:25;;;;;;;10.40;3.42;;;;;;;;;;4966331;28;20046;-72
2022/05/28 06:01:51;;;;;;;11.85;3.33;;;;;;;;;;4969000;28;20086;-71
2022/05/28 06:04:18;;;;;;;11.65;3.30;;;;;;;;;;4962745;28;20047;-73
2022/05/28 06:06:44;;;;;;;12.88;3.72;;;;;;;;;;4965311;28;20055;-71
2022/05/28 06:09:09;;;;;;;12.23;3.70;;;;;;;;;;4966954;28;20058;-71
2022/05/28 06:11:35;;;;;;;9.60;3.33;;;;;;;;;;4970587;28;20146;-70
2022/05/28 06:14:01;;;;;;;8.10;2.92;;;;;;;;;;4967310;28;20047;-71
2022/05/28 06:16:27;;;;;;;9.98;3.53;;;;;;;;;;4972479;28;20571;-71
2022/05/28 06:18:53;;;;;;;9.70;3.67;;;;;;;;;;4970254;28;20050;-71
2022/05/28 06:21:19;;;;;;;9.45;3.83;;;;;;;;;;4963383;28;20058;-70
2022/05/28 06:23:45;;;;;;;9.55;3.75;;;;;;;;;;4963459;28;20057;-73
2022/05/28 06:26:12;;;;;;;10.30;4.70;;;;;;;;;;4968260;28;20856;-70
2022/05/28 06:28:39;;;;;;;16.70;4.65;;;;;;;;;;4967937;28;20046;-73
2022/05/28 06:31:08;;;;;;;18.67;5.13;;;;;;;;;;4964988;28;20054;-73
2022/05/28 06:33:35;;;;;;;16.92;5.45;;;;;;;;;;4963162;28;20043;-73
2022/05/28 06:36:04;;;;;;;15.52;5.25;;;;;;;;;;4964560;28;20050;-73
2022/05/28 06:38:30;;;;;;;16.63;5.63;;;;;;;;;;4969967;28;20050;-74
2022/05/28 06:40:56;;;;;;;12.60;5.00;;;;;;;;;;4970721;28;20039;-74
2022/05/28 06:43:23;;;;;;;13.23;5.78;;;;;;;;;;4968724;28;20055;-73
2022/05/28 06:45:49;;;;;;;10.45;4.50;;;;;;;;;;4969931;28;20068;-75
2022/05/28 06:48:16;;;;;;;14.35;4.97;;;;;;;;;;4973464;28;20054;-75
2022/05/28 06:53:28;;;;;;;12.90;4.25;;;;;;;;;;4970265;28;20039;-74
2022/05/28 06:55:55;;;;;;;13.02;5.03;;;;;;;;;;4969013;28;20069;-74
2022/05/28 06:58:20;;;;;;;14.20;4.93;;;;;;;;;;4969205;28;20054;-75
2022/05/28 07:00:46;;;;;;;9.23;4.63;;;;;;;;;;4966594;28;20056;-75
2022/05/28 07:03:15;;;;;;;15.15;4.78;;;;;;;;;;4967302;28;20058;-73
2022/05/28 07:05:41;;;;;;;16.50;5.07;;;;;;;;;;4965435;28;20050;-76
2022/05/28 07:08:08;;;;;;;23.23;4.53;;;;;;;;;;4967604;28;20121;-74
2022/05/28 07:10:38;;;;;;;13.02;4.50;;;;;;;;;;4965754;28;20062;-74
2022/05/28 07:13:05;;;;;;;8.70;4.18;;;;;;;;;;4963880;28;20043;-74
2022/05/28 07:15:31;;;;;;;13.40;5.03;;;;;;;;;;4964497;28;20043;-74
2022/05/28 07:17:57;;;;;;;17.02;4.95;;;;;;;;;;4968485;28;20058;-73
2022/05/28 07:20:23;;;;;;;15.38;4.70;;;;;;;;;;4965867;28;20050;-73
2022/05/28 07:22:49;;;;;;;13.48;4.55;;;;;;;;;;4964195;28;20078;-78
2022/05/28 07:25:15;;;;;;;11.35;4.93;;;;;;;;;;4967722;28;20562;-78
2022/05/28 07:27:41;;;;;;;14.02;5.25;;;;;;;;;;4965039;28;20058;-77
2022/05/28 07:30:07;;;;;;;9.32;4.28;;;;;;;;;;4969679;28;20129;-74
2022/05/28 07:32:33;;;;;;;15.68;4.43;;;;;;;;;;4967543;28;20454;-74
2022/05/28 07:35:00;;;;;;;21.13;4.15;;;;;;;;;;4963234;28;20050;-73
2022/05/28 07:37:29;;;;;;;13.02;4.28;;;;;;;;;;4963618;28;20097;-74
2022/05/28 07:39:55;;;;;;;16.63;4.40;;;;;;;;;;4968559;28;20051;-73
2022/05/28 07:42:21;;;;;;;12.13;4.57;;;;;;;;;;4966458;28;20051;-75
2022/05/28 07:44:47;;;;;;;16.05;4.30;;;;;;;;;;4964693;28;20110;-72
2022/05/28 07:47:13;;;;;;;11.45;4.10;;;;;;;;;;4961795;28;20058;-73
2022/05/28 07:49:39;;;;;;;11.05;4.40;;;;;;;;;;4960392;28;20471;-76
2022/05/28 07:52:06;;;;;;;13.25;4.32;;;;;;;;;;4963443;28;20125;-72
2022/05/28 07:54:32;;;;;;;13.88;4.63;;;;;;;;;;4965333;28;20051;-73
2022/05/28 07:56:59;;;;;;;14.93;4.38;;;;;;;;;;4961401;28;20074;-74
2022/05/28 07:59:25;;;;;;;14.15;4.35;;;;;;;;;;4966652;28;20594;-73
2022/05/28 08:01:50;;;;;;;12.57;4.97;;;;;;;;;;4964981;28;20046;-73
2022/05/28 08:04:16;;;;;;;11.98;4.80;;;;;;;;;;4959613;28;20102;-72
2022/05/28 08:06:43;;;;;;;13.48;4.45;;;;;;;;;;4963008;28;20051;-72
2022/05/28 08:09:11;;;;;;;11.90;4.00;;;;;;;;;;4967155;28;20173;-72
2022/05/28 08:11:37;;;;;;;17.63;4.40;;;;;;;;;;4970610;28;20113;-72
2022/05/28 08:14:04;;;;;;;14.82;4.63;;;;;;;;;;4964157;28;20669;-72
2022/05/28 08:16:30;;;;;;;16.02;4.32;;;;;;;;;;4966198;28;20055;-71
2022/05/28 08:18:56;;;;;;;16.42;4.82;;;;;;;;;;4963034;28;20489;-71
2022/05/28 08:24:06;;;;;;;;;;;;;;;;;;4960765;28;20051;-75
2022/05/28 08:26:34;;;;;;;12.10;4.50;;;;;;;;;;4967405;28;19926;-73
2022/05/28 08:29:00;;;;;;;12.02;4.13;;;;;;;;;;4964122;28;20059;-72
2022/05/28 08:31:26;;;;;;;14.32;4.25;;;;;;;;;;4966324;28;20085;-73
2022/05/28 08:33:53;;;;;;;19.13;4.05;;;;;;;;;;4955747;28;20058;-71
2022/05/28 08:36:19;;;;;;;10.82;3.88;;;;;;;;;;4958125;28;20570;-77
2022/05/28 08:38:46;;;;;;;12.68;3.63;;;;;;;;;;4968459;28;20438;-73
2022/05/28 08:41:21;;;;;;;12.38;3.20;;;;;;;;;;4963973;28;20507;-73
2022/05/28 08:44:10;;;;;;;12.30;3.42;;;;;;;;;;4962177;28;20114;-72
2022/05/28 08:46:37;;;;;;;10.60;3.35;;;;;;;;;;4946939;28;20105;-76
2022/05/28 08:49:06;;;;;;;8.95;3.65;;;;;;;;;;4962903;28;20178;-72
2022/05/28 08:51:43;;;;;;;9.10;3.28;;;;;;;;;;4964446;28;20046;-72
2022/05/28 08:54:23;;;;;;;10.18;3.33;;;;;;;;;;4964689;28;20046;-72
2022/05/28 08:56:51;;;;;;;10.70;3.40;;;;;;;;;;4964313;28;20055;-73
2022/05/28 08:59:34;;;;;;;12.23;3.45;;;;;;;;;;4965705;28;20125;-72
2022/05/28 09:02:01;;;;;;;10.45;3.30;;;;;;;;;;4959441;28;20039;-71
2022/05/28 09:04:40;;;;;;;7.28;3.10;;;;;;;;;;4961870;28;21063;-72
2022/05/28 09:07:11;;;;;;;12.20;3.35;;;;;;;;;;4964772;28;20416;-74
2022/05/28 09:09:40;;;;;;;13.02;3.60;;;;;;;;;;4974121;28;20055;-72
2022/05/28 09:12:14;;;;;;;14.45;3.47;;;;;;;;;;4968669;28;20047;-71
2022/05/28 09:14:40;;;;;;;;;;;;;;;;;;4965772;28;20048;-72
2022/05/28 09:17:34;;;;;;;14.15;3.80;;;;;;;;;;4966912;28;20251;-71
2022/05/28 09:20:11;;;;;;;8.37;3.20;;;;;;;;;;4963494;28;20085;-73
2022/05/28 09:22:37;;;;;;;14.73;3.90;;;;;;;;;;4963434;28;20105;-72
2022/05/28 09:25:04;;;;;;;15.85;3.75;;;;;;;;;;4965542;28;20054;-74
2022/05/28 09:27:58;;;;;;;11.95;3.20;;;;;;;;;;4969165;28;20039;-73
2022/05/28 09:30:59;;;;;;;10.73;3.38;;;;;;;;;;4977129;28;21387;-74
2022/05/28 09:33:31;;;;;;;14.27;3.30;;;;;;;;;;4961105;28;20043;-74
2022/05/28 09:36:06;;;;;;;12.75;3.28;;;;;;;;;;4966467;28;20047;-74
2022/05/28 09:38:56;;;;;;;11.63;3.03;;;;;;;;;;4969983;28;20047;-75
2022/05/28 09:41:43;;;;;;;13.32;3.20;;;;;;;;;;4964891;28;20051;-74
2022/05/28 09:44:09;;;;;;;18.67;3.80;;;;;;;;;;4970197;28;20050;-75
2022/05/28 09:46:40;;;;;;;18.48;4.28;;;;;;;;;;4954576;28;20059;-72
2022/05/28 09:49:14;;;;;;;12.13;3.60;;;;;;;;;;4968310;28;20039;-72
2022/05/28 09:51:50;;;;;;;14.10;2.97;;;;;;;;;;4957437;28;20069;-72
2022/05/28 09:54:24;;;;;;;11.15;3.20;;;;;;;;;;4968825;28;20142;-76
2022/05/28 09:56:50;;;;;;;14.57;3.53;;;;;;;;;;4965957;28;20130;-73
2022/05/28 09:59:32;;;;;;;9.45;2.65;;;;;;;;;;4968539;28;20127;-76
2022/05/28 10:02:07;;;;;;;14.05;3.03;;;;;;;;;;4960452;28;20105;-73
2022/05/28 10:05:11;;;;;;;12.32;2.70;;;;;;;;;;4967505;28;20105;-74
2022/05/28 10:07:42;;;;;;;12.05;3.42;;;;;;;;;;4953676;28;20562;-73
2022/05/28 10:10:39;;;;;;;15.98;3.75;;;;;;;;;;4963680;28;20050;-72
2022/05/28 10:13:13;;;;;;;14.27;4.20;;;;;;;;;;4964827;28;20065;-77
2022/05/28 10:15:43;;;;;;;10.75;4.30;;;;;;;;;;4967045;28;20051;-75
2022/05/28 10:18:12;;;;;;;14.52;4.85;;;;;;;;;;4962152;28;20098;-74
2022/05/28 10:20:38;;;;;;;12.65;4.63;;;;;;;;;;4978190;28;20085;-74
2022/05/28 10:23:13;;;;;;;13.38;3.97;;;;;;;;;;4964018;28;20384;-74
2022/05/28 10:25:49;;;;;;;11.43;4.05;;;;;;;;;;4969327;28;20054;-72
2022/05/28 10:28:30;;;;;;;11.82;4.63;;;;;;;;;;4970386;28;20049;-74
2022/05/28 10:30:58;;;;;;;11.45;3.40;;;;;;;;;;4965655;28;20130;-74
2022/05/28 10:33:31;;;;;;;9.30;3.25;;;;;;;;;;4972236;28;20074;-77
2022/05/28 10:36:09;;;;;;;10.95;3.05;;;;;;;;;;4969214;28;20043;-72
2022/05/28 10:38:36;;;;;;;10.32;3.20;;;;;;;;;;4968938;28;20062;-75
2022/05/28 10:41:16;;;;;;;9.73;3.45;;;;;;;;;;4974224;28;20169;-73
2022/05/28 10:43:42;;;;;;;10.60;3.50;;;;;;;;;;4969664;28;20047;-76
2022/05/28 10:46:12;;;;;;;16.85;3.65;;;;;;;;;;4965567;28;20574;-71
2022/05/28 10:48:47;;;;;;;13.88;3.10;;;;;;;;;;4969486;28;20043;-74
2022/05/28 10:51:42;;;;;;;5.80;3.00;;;;;;;;;;4967490;28;20051;-72
2022/05/28 10:54:08;;;;;;;10.18;2.95;;;;;;;;;;4981017;28;20115;-73
2022/05/28 10:56:47;;;;;;;9.98;2.80;;;;;;;;;;4967165;28;20051;-75
2022/05/28 10:59:44;;;;;;;13.52;2.75;;;;;;;;;;4972732;28;20443;-71
2022/05/28 11:02:13;;;;;;;13.23;3.08;;;;;;;;;;4969149;28;20047;-68
2022/05/28 11:05:01;;;;;;;13.68;2.80;;;;;;;;;;4970890;28;20428;-68
2022/05/28 11:07:48;;;;;;;11.73;3.00;;;;;;;;;;4979910;28;20126;-70
2022/05/28 11:10:38;;;;;;;12.43;2.60;;;;;;;;;;4963501;28;20114;-70
2022/05/28 11:13:44;;;;;;;6.78;2.67;;;;;;;;;;4972792;28;20113;-67
2022/05/28 11:16:24;;;;;;;12.63;2.90;;;;;;;;;;4974496;28;20063;-70
2022/05/28 11:19:10;;;;;;;9.93;3.22;;;;;;;;;;4972198;28;20070;-70
2022/05/28 11:21:55;;;;;;;20.13;7.68;;;;;;;;;;4945607;28;20054;-70
2022/05/28 11:24:21;;;;;;;17.73;5.03;;;;;;;;;;4972885;28;20483;-67
2022/05/28 11:26:59;;;;;;;16.73;6.45;;;;;;;;;;4962737;28;20142;-68
2022/05/28 11:29:26;;;;;;;15.00;5.50;;;;;;;;;;4954237;28;20481;-68
2022/05/28 11:32:00;;;;;;;27.17;9.05;;;;;;;;;;4963288;28;20054;-71
2022/05/28 11:34:47;;;;;;;14.85;4.82;;;;;;;;;;4964947;28;20047;-69
2022/05/28 11:37:21;;;;;;;41.22;14.02;;;;;;;;;;4971317;28;20069;-69
2022/05/28 11:39:55;;;;;;;23.08;7.05;;;;;;;;;;4969050;28;20050;-69
2022/05/28 11:42:34;;;;;;;18.63;7.22;;;;;;;;;;4952320;28;20110;-70
2022/05/28 11:45:05;;;;;;;18.58;5.75;;;;;;;;;;4967172;28;20054;-69
2022/05/28 11:48:01;;;;;;;17.35;6.57;;;;;;;;;;4952241;28;20134;-68
2022/05/28 11:53:38;;;;;;;14.00;6.32;;;;;;;;;;4973006;28;20049;-72
2022/05/28 11:56:16;;;;;;;15.50;6.93;;;;;;;;;;4974418;28;20047;-69
2022/05/28 11:58:48;;;;;;;14.07;5.65;;;;;;;;;;4970740;28;20507;-70
2022/05/28 12:01:20;;;;;;;10.52;4.30;;;;;;;;;;4964933;28;20374;-69
2022/05/28 12:03:47;;;;;;;11.05;4.18;;;;;;;;;;4973871;28;20515;-72
2022/05/28 12:06:22;;;;;;;12.82;3.30;;;;;;;;;;4974590;28;20089;-70
2022/05/28 12:08:58;;;;;;;13.05;3.80;;;;;;;;;;4961449;28;20047;-70
2022/05/28 12:11:49;;;;;;;10.77;4.13;;;;;;;;;;4966886;28;20047;-67
2022/05/28 12:14:31;;;;;;;8.13;2.97;;;;;;;;;;4973013;28;20501;-69
2022/05/28 12:17:08;;;;;;;10.68;4.43;;;;;;;;;;4983770;28;20456;-70
2022/05/28 12:19:46;;;;;;;9.05;3.60;;;;;;;;;;4961394;28;20415;-69
2022/05/28 12:22:31;;;;;;;5.68;2.05;;;;;;;;;;4966768;28;20051;-71
2022/05/28 12:25:11;;;;;;;10.07;3.90;;;;;;;;;;4968407;28;20562;-71
2022/05/28 12:27:47;;;;;;;8.88;4.82;;;;;;;;;;4971469;28;20137;-69
2022/05/28 12:30:46;;;;;;;17.45;5.90;;;;;;;;;;4971352;28;20500;-69
2022/05/28 12:33:33;;;;;;;8.60;3.75;;;;;;;;;;4966551;28;20138;-69
2022/05/28 12:36:08;;;;;;;7.85;3.33;;;;;;;;;;4965815;28;20063;-71
2022/05/28 12:38:46;;;;;;;7.85;3.45;;;;;;;;;;4970214;28;20101;-70
2022/05/28 12:41:38;;;;;;;9.73;3.20;;;;;;;;;;4972161;28;20035;-67
2022/05/28 12:44:19;;;;;;;10.30;4.88;;;;;;;;;;4964583;28;20047;-71
2022/05/28 12:46:54;;;;;;;16.48;8.45;;;;;;;;;;4957142;28;20063;-70
2022/05/28 12:49:32;;;;;;;11.75;5.25;;;;;;;;;;4964739;28;20049;-70
2022/05/28 12:52:27;;;;;;;11.95;4.80;;;;;;;;;;4961373;28;20137;-70
2022/05/28 12:55:25;;;;;;;14.55;5.35;;;;;;;;;;4972834;28;20057;-71
2022/05/28 12:58:04;;;;;;;9.65;4.20;;;;;;;;;;4958457;28;20061;-69
2022/05/28 13:00:39;;;;;;;12.40;6.38;;;;;;;;;;4974762;28;20488;-70
2022/05/28 13:03:07;;;;;;;8.35;4.30;;;;;;;;;;4975422;28;20384;-71
2022/05/28 13:05:42;;;;;;;7.88;4.13;;;;;;;;;;4974234;28;20052;-71
2022/05/28 13:08:29;;;;;;;7.50;2.83;;;;;;;;;;4970393;28;20110;-70
2022/05/28 13:11:04;;;;;;;9.27;2.45;;;;;;;;;;4966611;28;20137;-69
2022/05/28 13:13:35;;;;;;;8.45;2.25;;;;;;;;;;4963771;28;20059;-71
2022/05/28 13:16:29;;;;;;;9.23;3.30;;;;;;;;;;4963713;28;20054;-72
2022/05/28 13:18:55;;;;;;;;;;;;;;;;;;4964922;28;20051;-69
2022/05/28 13:22:08;;;;;;;4.80;1.83;;;;;;;;;;4962295;28;20288;-73
2022/05/28 13:24:37;;;;;;;4.53;1.40;;;;;;;;;;4883819;29;20064;-71
2022/05/28 13:27:27;;;;;;;6.65;1.83;;;;;;;;;;4880501;29;20055;-73
2022/05/28 13:30:09;;;;;;;5.28;1.48;;;;;;;;;;4880794;29;20503;-71
2022/05/28 13:32:49;;;;;;;6.50;1.58;;;;;;;;;;4886990;29;20048;-71
2022/05/28 13:35:17;;;;;;;6.43;1.38;;;;;;;;;;4882994;29;20121;-72
2022/05/28 13:37:57;;;;;;;8.52;1.70;;;;;;;;;;4887903;29;20055;-74
2022/05/28 13:40:26;;;;;;;4.05;1.52;;;;;;;;;;4887627;29;20084;-73
2022/05/28 13:42:54;;;;;;;5.07;1.63;;;;;;;;;;4885799;29;20179;-74
2022/05/28 13:45:30;;;;;;;5.15;3.08;;;;;;;;;;4876933;29;21564;-70
2022/05/28 13:48:05;;;;;;;3.85;1.65;;;;;;;;;;4884674;29;20498;-70
2022/05/28 13:50:32;;;;;;;3.10;1.60;;;;;;;;;;4882020;29;20049;-69
2022/05/28 13:52:59;;;;;;;6.15;1.85;;;;;;;;;;4890088;29;20095;-72
2022/05/28 13:55:27;;;;;;;4.50;1.88;;;;;;;;;;4927179;28;20514;-70
2022/05/28 13:57:54;;;;;;;9.05;2.00;;;;;;;;;;4979020;28;20050;-70
2022/05/28 14:00:28;;;;;;;8.68;1.88;;;;;;;;;;4968571;28;20118;-72
2022/05/28 14:03:04;;;;;;;5.05;1.70;;;;;;;;;;4966959;28;20058;-72
2022/05/28 14:05:39;;;;;;;7.05;1.83;;;;;;;;;;4966558;28;20117;-70
2022/05/28 14:08:12;;;;;;;8.48;2.15;;;;;;;;;;4967219;28;20563;-72
2022/05/28 14:10:41;;;;;;;4.40;1.60;;;;;;;;;;4961864;28;20120;-71
2022/05/28 14:13:16;;;;;;;3.83;1.85;;;;;;;;;;4972982;28;20066;-73
2022/05/28 14:15:50;;;;;;;3.83;1.70;;;;;;;;;;4967085;28;20397;-75
2022/05/28 14:18:23;;;;;;;8.07;2.00;;;;;;;;;;4968564;28;20491;-76
2022/05/28 14:21:02;;;;;;;11.93;3.05;;;;;;;;;;4966184;28;20581;-68
2022/05/28 14:23:28;;;;;;;14.85;2.95;;;;;;;;;;4962284;28;20043;-70
2022/05/28 14:25:55;;;;;;;13.05;3.60;;;;;;;;;;4975927;28;20043;-72
2022/05/28 14:28:22;;;;;;;11.25;2.97;;;;;;;;;;4970713;28;20385;-70
2022/05/28 14:30:49;;;;;;;8.75;2.85;;;;;;;;;;4989926;28;20400;-72
2022/05/28 14:33:32;;;;;;;18.60;3.78;;;;;;;;;;4991960;28;20129;-71
2022/05/28 14:36:13;;;;;;;10.00;2.92;;;;;;;;;;4987816;28;20047;-71
2022/05/28 14:38:40;;;;;;;8.98;2.60;;;;;;;;;;4972217;28;20050;-72
2022/05/28 14:41:14;;;;;;;10.02;2.10;;;;;;;;;;4972916;28;20070;-71
2022/05/28 14:43:52;;;;;;;10.30;2.35;;;;;;;;;;4954503;28;20071;-70
2022/05/28 14:46:32;;;;;;;11.43;2.38;;;;;;;;;;4964444;28;20134;-73
2022/05/28 14:49:07;;;;;;;9.23;2.15;;;;;;;;;;4986571;28;20104;-71
2022/05/28 14:51:39;;;;;;;7.32;2.00;;;;;;;;;;4962982;28;20046;-69
2022/05/28 14:54:26;;;;;;;5.25;2.00;;;;;;;;;;4975625;28;20391;-69
2022/05/28 14:56:52;;;;;;;5.20;1.60;;;;;;;;;;4966553;28;20507;-70
2022/05/28 14:59:37;;;;;;;13.27;2.13;;;;;;;;;;4968254;28;20428;-69
2022/05/28 15:02:29;;;;;;;8.77;1.98;;;;;;;;;;4962001;28;20065;-73
2022/05/28 15:05:12;;;;;;;12.13;1.90;;;;;;;;;;4982621;28;20042;-71
2022/05/28 15:07:47;;;;;;;8.07;1.73;;;;;;;;;;4985648;28;20062;-69
2022/05/28 15:10:33;;;;;;;8.07;2.03;;;;;;;;;;4972587;28;20113;-69
2022/05/28 15:13:26;;;;;;;7.15;2.10;;;;;;;;;;4970229;28;20047;-72
2022/05/28 15:15:54;;;;;;;9.18;2.33;;;;;;;;;;4977388;28;20055;-69
2022/05/28 15:18:22;;;;;;;6.75;2.10;;;;;;;;;;4960116;28;20134;-71